sensor_id;sensor_type;location;lat;lon;timestamp;pressure;altitude;pressure_sealevel;temperature;humidity
18533;BME280;9396;51.510;11.934;2024-03-25T00:01:02;99081.84;;;5.63;100.00
18533;BME280;9396;51.510;11.934;2024-03-25T00:03:28;99081.88;;;5.45;100.00
18533;BME280;9396;51.510;11.934;2024-03-25T00:05:55;99085.88;;;5.49;100.00
18533;BME280;9396;51.510;11.934;2024-03-25T00:08:20;99042.91;;;5.31;100.00
18533;BME280;9396;51.510;11.934;2024-03-25T00:10:49;99086.56;;;5.51;100.00
18533;BME280;9396;51.510;11.934;2024-03-25T00:13:14;99079.31;;;5.53;100.00
18533;BME280;9396;51.510;11.934;2024-03-25T00:15:41;99076.13;;;5.67;100.00
18533;BME280;9396;51.510;11.934;2024-03-25T00:18:07;99082.84;;;5.62;100.00
18533;BME280;9396;51.510;11.934;2024-03-25T00:20:33;99083.78;;;5.78;100.00
18533;BME280;9396;51.510;11.934;2024-03-25T00:22:59;99089.25;;;5.59;100.00
18533;BME280;9396;51.510;11.934;2024-03-25T00:25:25;99083.25;;;5.49;100.00
18533;BME280;9396;51.510;11.934;2024-03-25T00:27:52;99091.69;;;5.53;100.00
18533;BME280;9396;51.510;11.934;2024-03-25T00:30:19;99089.56;;;5.56;100.00
18533;BME280;9396;51.510;11.934;2024-03-25T00:32:45;99093.88;;;5.57;100.00
18533;BME280;9396;51.510;11.934;2024-03-25T00:35:11;99096.50;;;5.57;100.00
18533;BME280;9396;51.510;11.934;2024-03-25T00:37:37;99093.75;;;5.67;100.00
18533;BME280;9396;51.510;11.934;2024-03-25T00:40:05;99101.47;;;5.60;100.00
18533;BME280;9396;51.510;11.934;2024-03-25T00:42:32;99101.47;;;5.60;100.00
18533;BME280;9396;51.510;11.934;2024-03-25T00:45:00;99106.41;;;5.63;100.00
18533;BME280;9396;51.510;11.934;2024-03-25T00:47:26;99108.22;;;5.63;100.00
18533;BME280;9396;51.510;11.934;2024-03-25T00:49:52;99106.06;;;5.58;100.00
18533;BME280;9396;51.510;11.934;2024-03-25T00:52:18;99106.50;;;5.54;100.00
18533;BME280;9396;51.510;11.934;2024-03-25T00:54:45;99107.06;;;5.57;100.00
18533;BME280;9396;51.510;11.934;2024-03-25T00:57:11;99102.50;;;5.67;100.00
18533;BME280;9396;51.510;11.934;2024-03-25T00:59:38;99111.09;;;5.69;100.00
18533;BME280;9396;51.510;11.934;2024-03-25T01:02:05;99104.38;;;5.75;100.00
18533;BME280;9396;51.510;11.934;2024-03-25T01:04:33;99109.50;;;5.76;100.00
18533;BME280;9396;51.510;11.934;2024-03-25T01:06:59;99112.97;;;5.77;100.00
18533;BME280;9396;51.510;11.934;2024-03-25T01:09:25;99118.06;;;5.78;100.00
18533;BME280;9396;51.510;11.934;2024-03-25T01:11:51;99113.25;;;5.74;100.00
18533;BME280;9396;51.510;11.934;2024-03-25T01:14:18;99121.00;;;5.75;100.00
18533;BME280;9396;51.510;11.934;2024-03-25T01:16:43;99125.44;;;5.92;100.00
18533;BME280;9396;51.510;11.934;2024-03-25T01:19:11;99129.44;;;5.79;100.00
18533;BME280;9396;51.510;11.934;2024-03-25T01:21:37;99122.75;;;5.84;100.00
18533;BME280;9396;51.510;11.934;2024-03-25T01:24:04;99132.06;;;5.79;100.00
18533;BME280;9396;51.510;11.934;2024-03-25T01:26:30;99128.03;;;5.67;100.00
18533;BME280;9396;51.510;11.934;2024-03-25T01:28:56;99138.44;;;5.68;100.00
18533;BME280;9396;51.510;11.934;2024-03-25T01:31:22;99130.75;;;5.75;100.00
18533;BME280;9396;51.510;11.934;2024-03-25T01:33:48;99131.28;;;5.78;100.00
18533;BME280;9396;51.510;11.934;2024-03-25T01:36:15;99135.50;;;5.71;100.00
18533;BME280;9396;51.510;11.934;2024-03-25T01:38:43;99128.28;;;5.56;100.00
18533;BME280;9396;51.510;11.934;2024-03-25T01:41:08;99140.72;;;5.63;100.00
18533;BME280;9396;51.510;11.934;2024-03-25T01:43:35;99142.00;;;5.59;100.00
18533;BME280;9396;51.510;11.934;2024-03-25T01:46:01;99138.16;;;5.54;100.00
18533;BME280;9396;51.510;11.934;2024-03-25T01:48:27;99142.47;;;5.55;100.00
18533;BME280;9396;51.510;11.934;2024-03-25T01:50:53;99150.41;;;5.63;100.00
18533;BME280;9396;51.510;11.934;2024-03-25T01:53:22;99144.69;;;5.67;100.00
18533;BME280;9396;51.510;11.934;2024-03-25T01:55:48;99159.53;;;5.68;100.00
18533;BME280;9396;51.510;11.934;2024-03-25T01:58:16;99160.53;;;5.67;100.00
18533;BME280;9396;51.510;11.934;2024-03-25T02:00:42;99153.53;;;5.58;100.00
18533;BME280;9396;51.510;11.934;2024-03-25T02:03:09;99165.34;;;5.54;100.00
18533;BME280;9396;51.510;11.934;2024-03-25T02:05:35;99165.47;;;5.44;100.00
18533;BME280;9396;51.510;11.934;2024-03-25T02:08:03;99160.41;;;5.51;100.00
18533;BME280;9396;51.510;11.934;2024-03-25T02:10:30;99169.00;;;5.53;100.00
18533;BME280;9396;51.510;11.934;2024-03-25T02:12:56;99169.28;;;5.50;100.00
18533;BME280;9396;51.510;11.934;2024-03-25T02:15:22;99179.38;;;5.55;100.00
18533;BME280;9396;51.510;11.934;2024-03-25T02:17:49;99180.91;;;5.57;100.00
18533;BME280;9396;51.510;11.934;2024-03-25T02:20:14;99187.66;;;5.60;100.00
18533;BME280;9396;51.510;11.934;2024-03-25T02:22:41;99178.25;;;5.57;100.00
18533;BME280;9396;51.510;11.934;2024-03-25T02:25:08;99182.59;;;5.66;100.00
18533;BME280;9396;51.510;11.934;2024-03-25T02:27:37;99192.63;;;5.63;100.00
18533;BME280;9396;51.510;11.934;2024-03-25T02:30:04;99191.44;;;5.57;100.00
18533;BME280;9396;51.510;11.934;2024-03-25T02:32:32;99198.00;;;5.53;100.00
18533;BME280;9396;51.510;11.934;2024-03-25T02:34:58;99200.13;;;5.50;100.00
18533;BME280;9396;51.510;11.934;2024-03-25T02:37:25;99204.84;;;5.46;100.00
18533;BME280;9396;51.510;11.934;2024-03-25T02:39:51;99203.03;;;5.46;100.00
18533;BME280;9396;51.510;11.934;2024-03-25T02:42:19;99194.31;;;5.46;100.00
18533;BME280;9396;51.510;11.934;2024-03-25T02:44:46;99206.50;;;5.47;100.00
18533;BME280;9396;51.510;11.934;2024-03-25T02:47:13;99211.34;;;5.52;100.00
18533;BME280;9396;51.510;11.934;2024-03-25T02:49:38;99212.81;;;5.54;100.00
18533;BME280;9396;51.510;11.934;2024-03-25T02:52:05;99216.09;;;5.48;100.00
18533;BME280;9396;51.510;11.934;2024-03-25T02:54:31;99212.97;;;5.53;100.00
18533;BME280;9396;51.510;11.934;2024-03-25T02:56:57;99217.66;;;5.41;100.00
18533;BME280;9396;51.510;11.934;2024-03-25T02:59:23;99228.97;;;5.33;100.00
18533;BME280;9396;51.510;11.934;2024-03-25T03:01:51;99234.13;;;5.25;100.00
18533;BME280;9396;51.510;11.934;2024-03-25T03:04:16;99231.34;;;5.27;100.00
18533;BME280;9396;51.510;11.934;2024-03-25T03:06:43;99237.66;;;5.16;100.00
18533;BME280;9396;51.510;11.934;2024-03-25T03:09:08;99234.66;;;5.29;100.00
18533;BME280;9396;51.510;11.934;2024-03-25T03:11:35;99246.19;;;5.28;100.00
18533;BME280;9396;51.510;11.934;2024-03-25T03:14:01;99249.13;;;5.25;100.00
18533;BME280;9396;51.510;11.934;2024-03-25T03:16:28;99242.88;;;5.26;100.00
18533;BME280;9396;51.510;11.934;2024-03-25T03:18:55;99256.81;;;5.36;100.00
18533;BME280;9396;51.510;11.934;2024-03-25T03:21:22;99263.22;;;5.33;100.00
18533;BME280;9396;51.510;11.934;2024-03-25T03:23:47;99262.50;;;5.41;100.00
18533;BME280;9396;51.510;11.934;2024-03-25T03:26:14;99270.69;;;5.38;100.00
18533;BME280;9396;51.510;11.934;2024-03-25T03:28:40;99256.38;;;5.58;100.00
18533;BME280;9396;51.510;11.934;2024-03-25T03:31:07;99259.84;;;5.41;100.00
18533;BME280;9396;51.510;11.934;2024-03-25T03:33:33;99260.59;;;5.51;100.00
18533;BME280;9396;51.510;11.934;2024-03-25T03:36:01;99255.50;;;5.50;100.00
18533;BME280;9396;51.510;11.934;2024-03-25T03:38:26;99275.06;;;5.47;100.00
18533;BME280;9396;51.510;11.934;2024-03-25T03:40:57;99273.47;;;5.36;100.00
18533;BME280;9396;51.510;11.934;2024-03-25T03:43:23;99272.44;;;5.47;100.00
18533;BME280;9396;51.510;11.934;2024-03-25T03:45:49;99278.75;;;5.36;100.00
18533;BME280;9396;51.510;11.934;2024-03-25T03:48:15;99281.91;;;5.40;100.00
18533;BME280;9396;51.510;11.934;2024-03-25T03:50:41;99285.75;;;5.45;100.00
18533;BME280;9396;51.510;11.934;2024-03-25T03:53:08;99283.34;;;5.52;100.00
18533;BME280;9396;51.510;11.934;2024-03-25T03:55:35;99287.88;;;5.42;100.00
18533;BME280;9396;51.510;11.934;2024-03-25T03:58:01;99284.03;;;5.36;100.00
18533;BME280;9396;51.510;11.934;2024-03-25T04:00:27;99294.72;;;5.35;100.00
18533;BME280;9396;51.510;11.934;2024-03-25T04:02:53;99290.16;;;5.55;100.00
18533;BME280;9396;51.510;11.934;2024-03-25T04:05:19;99299.16;;;5.34;100.00
18533;BME280;9396;51.510;11.934;2024-03-25T04:07:45;99306.84;;;5.45;100.00
18533;BME280;9396;51.510;11.934;2024-03-25T04:10:13;99299.78;;;5.46;100.00
18533;BME280;9396;51.510;11.934;2024-03-25T04:12:39;99311.44;;;5.43;100.00
18533;BME280;9396;51.510;11.934;2024-03-25T04:15:06;99295.09;;;5.40;100.00
18533;BME280;9396;51.510;11.934;2024-03-25T04:17:31;99310.56;;;5.25;100.00
18533;BME280;9396;51.510;11.934;2024-03-25T04:19:59;99316.75;;;5.34;100.00
18533;BME280;9396;51.510;11.934;2024-03-25T04:22:25;99314.00;;;5.35;100.00
18533;BME280;9396;51.510;11.934;2024-03-25T04:24:52;99315.13;;;5.33;100.00
18533;BME280;9396;51.510;11.934;2024-03-25T04:27:18;99317.69;;;5.25;100.00
18533;BME280;9396;51.510;11.934;2024-03-25T04:29:48;99319.31;;;5.26;100.00
18533;BME280;9396;51.510;11.934;2024-03-25T04:32:13;99328.69;;;5.38;100.00
18533;BME280;9396;51.510;11.934;2024-03-25T04:34:40;99329.38;;;5.40;100.00
18533;BME280;9396;51.510;11.934;2024-03-25T04:37:05;99337.09;;;5.24;100.00
18533;BME280;9396;51.510;11.934;2024-03-25T04:39:31;99346.22;;;5.29;100.00
18533;BME280;9396;51.510;11.934;2024-03-25T04:41:57;99346.75;;;5.33;100.00
18533;BME280;9396;51.510;11.934;2024-03-25T04:44:24;99346.00;;;5.23;100.00
18533;BME280;9396;51.510;11.934;2024-03-25T04:46:49;99339.88;;;5.22;100.00
18533;BME280;9396;51.510;11.934;2024-03-25T04:49:15;99356.38;;;5.24;100.00
18533;BME280;9396;51.510;11.934;2024-03-25T04:51:41;99349.84;;;5.28;100.00
18533;BME280;9396;51.510;11.934;2024-03-25T04:54:06;99361.81;;;5.23;100.00
18533;BME280;9396;51.510;11.934;2024-03-25T04:56:32;99356.56;;;5.13;100.00
18533;BME280;9396;51.510;11.934;2024-03-25T04:58:57;99366.91;;;5.24;100.00
18533;BME280;9396;51.510;11.934;2024-03-25T05:01:25;99371.22;;;5.25;100.00
18533;BME280;9396;51.510;11.934;2024-03-25T05:03:50;99371.28;;;5.16;100.00
18533;BME280;9396;51.510;11.934;2024-03-25T05:06:16;99365.50;;;5.30;100.00
18533;BME280;9396;51.510;11.934;2024-03-25T05:08:41;99375.75;;;5.33;100.00
18533;BME280;9396;51.510;11.934;2024-03-25T05:11:07;99366.41;;;5.48;100.00
18533;BME280;9396;51.510;11.934;2024-03-25T05:13:32;99377.03;;;5.29;100.00
18533;BME280;9396;51.510;11.934;2024-03-25T05:15:58;99386.06;;;5.26;100.00
18533;BME280;9396;51.510;11.934;2024-03-25T05:18:25;99386.16;;;5.34;100.00
18533;BME280;9396;51.510;11.934;2024-03-25T05:20:51;99390.00;;;5.40;100.00
18533;BME280;9396;51.510;11.934;2024-03-25T05:23:16;99385.50;;;5.50;100.00
18533;BME280;9396;51.510;11.934;2024-03-25T05:25:42;99388.91;;;5.42;100.00
18533;BME280;9396;51.510;11.934;2024-03-25T05:28:07;99391.88;;;5.30;100.00
18533;BME280;9396;51.510;11.934;2024-03-25T05:30:33;99395.59;;;5.37;100.00
18533;BME280;9396;51.510;11.934;2024-03-25T05:32:59;99401.00;;;5.35;100.00
18533;BME280;9396;51.510;11.934;2024-03-25T05:35:25;99398.69;;;5.50;100.00
18533;BME280;9396;51.510;11.934;2024-03-25T05:37:51;99404.56;;;5.44;100.00
18533;BME280;9396;51.510;11.934;2024-03-25T05:40:17;99401.50;;;5.48;100.00
18533;BME280;9396;51.510;11.934;2024-03-25T05:42:44;99403.69;;;5.53;100.00
18533;BME280;9396;51.510;11.934;2024-03-25T05:45:10;99401.75;;;5.55;100.00
18533;BME280;9396;51.510;11.934;2024-03-25T05:47:35;99411.00;;;5.59;100.00
18533;BME280;9396;51.510;11.934;2024-03-25T05:50:01;99418.13;;;5.59;100.00
18533;BME280;9396;51.510;11.934;2024-03-25T05:52:29;99416.81;;;5.63;100.00
18533;BME280;9396;51.510;11.934;2024-03-25T05:54:55;99404.19;;;5.39;100.00
18533;BME280;9396;51.510;11.934;2024-03-25T05:57:21;99414.66;;;5.48;100.00
18533;BME280;9396;51.510;11.934;2024-03-25T05:59:46;99427.13;;;5.56;100.00
18533;BME280;9396;51.510;11.934;2024-03-25T06:02:12;99427.69;;;5.60;100.00
18533;BME280;9396;51.510;11.934;2024-03-25T06:04:37;99431.78;;;5.72;100.00
18533;BME280;9396;51.510;11.934;2024-03-25T06:07:03;99438.06;;;5.61;100.00
18533;BME280;9396;51.510;11.934;2024-03-25T06:09:30;99440.47;;;5.55;100.00
18533;BME280;9396;51.510;11.934;2024-03-25T06:11:56;99443.00;;;5.46;100.00
18533;BME280;9396;51.510;11.934;2024-03-25T06:14:22;99441.72;;;5.51;100.00
18533;BME280;9396;51.510;11.934;2024-03-25T06:16:47;99448.16;;;5.48;100.00
18533;BME280;9396;51.510;11.934;2024-03-25T06:19:13;99448.00;;;5.50;100.00
18533;BME280;9396;51.510;11.934;2024-03-25T06:21:38;99447.16;;;5.49;100.00
18533;BME280;9396;51.510;11.934;2024-03-25T06:24:05;99447.13;;;5.59;100.00
18533;BME280;9396;51.510;11.934;2024-03-25T06:26:32;99447.88;;;5.78;100.00
18533;BME280;9396;51.510;11.934;2024-03-25T06:28:57;99459.53;;;5.76;100.00
18533;BME280;9396;51.510;11.934;2024-03-25T06:31:23;99464.50;;;5.88;100.00
18533;BME280;9396;51.510;11.934;2024-03-25T06:34:07;99461.84;;;5.88;100.00
18533;BME280;9396;51.510;11.934;2024-03-25T06:36:43;99474.53;;;5.75;100.00
18533;BME280;9396;51.510;11.934;2024-03-25T06:39:09;99470.38;;;5.73;100.00
18533;BME280;9396;51.510;11.934;2024-03-25T06:41:36;99479.38;;;5.80;100.00
18533;BME280;9396;51.510;11.934;2024-03-25T06:44:01;99478.16;;;5.84;100.00
18533;BME280;9396;51.510;11.934;2024-03-25T06:46:27;99474.53;;;5.85;100.00
18533;BME280;9396;51.510;11.934;2024-03-25T06:48:53;99486.09;;;6.01;100.00
18533;BME280;9396;51.510;11.934;2024-03-25T06:51:19;99497.38;;;5.94;100.00
18533;BME280;9396;51.510;11.934;2024-03-25T06:53:44;99490.50;;;6.10;100.00
18533;BME280;9396;51.510;11.934;2024-03-25T06:56:10;99500.56;;;6.24;100.00
18533;BME280;9396;51.510;11.934;2024-03-25T06:58:37;99490.69;;;6.26;100.00
18533;BME280;9396;51.510;11.934;2024-03-25T07:01:04;99499.03;;;6.22;100.00
18533;BME280;9396;51.510;11.934;2024-03-25T07:03:30;99492.09;;;6.21;100.00
18533;BME280;9396;51.510;11.934;2024-03-25T07:05:56;99502.00;;;6.36;100.00
18533;BME280;9396;51.510;11.934;2024-03-25T07:08:22;99500.78;;;6.48;100.00
18533;BME280;9396;51.510;11.934;2024-03-25T07:10:47;99506.69;;;6.42;100.00
18533;BME280;9396;51.510;11.934;2024-03-25T07:13:13;99512.50;;;6.46;100.00
18533;BME280;9396;51.510;11.934;2024-03-25T07:15:42;99505.84;;;6.42;100.00
18533;BME280;9396;51.510;11.934;2024-03-25T07:18:08;99512.34;;;6.47;100.00
18533;BME280;9396;51.510;11.934;2024-03-25T07:20:35;99514.69;;;6.50;100.00
18533;BME280;9396;51.510;11.934;2024-03-25T07:23:00;99509.19;;;6.62;100.00
18533;BME280;9396;51.510;11.934;2024-03-25T07:25:26;99507.28;;;6.54;100.00
18533;BME280;9396;51.510;11.934;2024-03-25T07:27:52;99514.13;;;7.00;100.00
18533;BME280;9396;51.510;11.934;2024-03-25T07:30:18;99525.44;;;7.27;100.00
18533;BME280;9396;51.510;11.934;2024-03-25T07:32:45;99524.00;;;7.33;97.63
18533;BME280;9396;51.510;11.934;2024-03-25T07:35:11;99507.50;;;7.13;98.12
18533;BME280;9396;51.510;11.934;2024-03-25T07:37:37;99522.03;;;7.17;98.73
18533;BME280;9396;51.510;11.934;2024-03-25T07:40:03;99527.44;;;7.33;98.85
18533;BME280;9396;51.510;11.934;2024-03-25T07:42:29;99528.03;;;7.45;98.31
18533;BME280;9396;51.510;11.934;2024-03-25T07:44:55;99536.44;;;7.40;96.83
18533;BME280;9396;51.510;11.934;2024-03-25T07:47:20;99540.56;;;7.17;96.16
18533;BME280;9396;51.510;11.934;2024-03-25T07:49:47;99535.91;;;7.11;96.89
18533;BME280;9396;51.510;11.934;2024-03-25T07:52:13;99539.78;;;6.99;97.12
18533;BME280;9396;51.510;11.934;2024-03-25T07:54:38;99534.91;;;7.12;97.44
18533;BME280;9396;51.510;11.934;2024-03-25T07:57:04;99543.88;;;7.19;97.43
18533;BME280;9396;51.510;11.934;2024-03-25T07:59:30;99548.66;;;7.16;97.74
18533;BME280;9396;51.510;11.934;2024-03-25T08:01:56;99546.84;;;7.16;97.47
18533;BME280;9396;51.510;11.934;2024-03-25T08:04:22;99557.13;;;7.02;97.31
18533;BME280;9396;51.510;11.934;2024-03-25T08:06:49;99562.94;;;7.05;98.07
18533;BME280;9396;51.510;11.934;2024-03-25T08:09:14;99557.56;;;7.15;97.92
18533;BME280;9396;51.510;11.934;2024-03-25T08:11:40;99570.44;;;7.35;97.88
18533;BME280;9396;51.510;11.934;2024-03-25T08:14:05;99569.25;;;7.30;96.79
18533;BME280;9396;51.510;11.934;2024-03-25T08:16:31;99579.09;;;7.20;95.25
18533;BME280;9396;51.510;11.934;2024-03-25T08:18:57;99576.94;;;7.15;96.66
18533;BME280;9396;51.510;11.934;2024-03-25T08:21:23;99580.00;;;7.11;97.71
18533;BME280;9396;51.510;11.934;2024-03-25T08:23:49;99578.72;;;7.15;97.60
18533;BME280;9396;51.510;11.934;2024-03-25T08:26:15;99578.41;;;7.18;97.58
18533;BME280;9396;51.510;11.934;2024-03-25T08:28:41;99588.41;;;7.24;95.06
18533;BME280;9396;51.510;11.934;2024-03-25T08:31:06;99588.09;;;7.27;97.87
18533;BME280;9396;51.510;11.934;2024-03-25T08:33:32;99591.53;;;7.45;96.46
18533;BME280;9396;51.510;11.934;2024-03-25T08:35:58;99589.97;;;7.60;95.70
18533;BME280;9396;51.510;11.934;2024-03-25T08:38:23;99598.84;;;7.69;95.64
18533;BME280;9396;51.510;11.934;2024-03-25T08:40:51;99598.00;;;7.68;97.53
18533;BME280;9396;51.510;11.934;2024-03-25T08:43:16;99596.09;;;7.60;98.70
18533;BME280;9396;51.510;11.934;2024-03-25T08:45:43;99600.88;;;7.57;99.15
18533;BME280;9396;51.510;11.934;2024-03-25T08:48:08;99607.00;;;7.57;99.00
18533;BME280;9396;51.510;11.934;2024-03-25T08:50:34;99607.63;;;7.51;99.37
18533;BME280;9396;51.510;11.934;2024-03-25T08:52:59;99605.66;;;7.53;99.42
18533;BME280;9396;51.510;11.934;2024-03-25T08:55:27;99615.16;;;7.64;100.00
18533;BME280;9396;51.510;11.934;2024-03-25T08:57:54;99616.44;;;7.60;99.52
18533;BME280;9396;51.510;11.934;2024-03-25T09:00:20;99610.78;;;7.55;100.00
18533;BME280;9396;51.510;11.934;2024-03-25T09:02:45;99618.53;;;7.48;100.00
18533;BME280;9396;51.510;11.934;2024-03-25T09:05:11;99614.78;;;7.59;100.00
18533;BME280;9396;51.510;11.934;2024-03-25T09:07:37;99607.97;;;7.74;99.17
18533;BME280;9396;51.510;11.934;2024-03-25T09:10:03;99616.63;;;7.84;99.93
18533;BME280;9396;51.510;11.934;2024-03-25T09:12:47;99617.34;;;7.94;98.70
18533;BME280;9396;51.510;11.934;2024-03-25T09:15:14;99607.09;;;7.99;99.44
18533;BME280;9396;51.510;11.934;2024-03-25T09:17:40;99614.34;;;8.15;99.49
18533;BME280;9396;51.510;11.934;2024-03-25T09:20:07;99612.78;;;8.30;98.23
18533;BME280;9396;51.510;11.934;2024-03-25T09:22:33;99610.19;;;8.46;97.15
18533;BME280;9396;51.510;11.934;2024-03-25T09:24:58;99605.31;;;8.83;98.61
18533;BME280;9396;51.510;11.934;2024-03-25T09:27:24;99615.84;;;9.17;97.02
18533;BME280;9396;51.510;11.934;2024-03-25T09:29:49;99612.19;;;9.10;94.79
18533;BME280;9396;51.510;11.934;2024-03-25T09:32:16;99607.22;;;9.15;94.28
18533;BME280;9396;51.510;11.934;2024-03-25T09:34:42;99604.91;;;9.20;93.12
18533;BME280;9396;51.510;11.934;2024-03-25T09:37:07;99608.72;;;9.25;93.08
18533;BME280;9396;51.510;11.934;2024-03-25T09:39:33;99605.56;;;9.14;93.41
18533;BME280;9396;51.510;11.934;2024-03-25T09:42:01;99600.09;;;9.23;92.80
18533;BME280;9396;51.510;11.934;2024-03-25T09:44:31;99603.09;;;9.28;91.58
18533;BME280;9396;51.510;11.934;2024-03-25T09:46:57;99596.28;;;9.26;90.71
18533;BME280;9396;51.510;11.934;2024-03-25T09:49:25;99600.59;;;9.27;90.28
18533;BME280;9396;51.510;11.934;2024-03-25T09:51:51;99604.25;;;9.18;92.08
18533;BME280;9396;51.510;11.934;2024-03-25T09:54:16;99607.56;;;9.20;94.16
18533;BME280;9396;51.510;11.934;2024-03-25T09:56:42;99607.25;;;9.31;94.14
18533;BME280;9396;51.510;11.934;2024-03-25T09:59:08;99612.19;;;9.26;91.12
18533;BME280;9396;51.510;11.934;2024-03-25T10:01:34;99616.19;;;9.22;90.16
18533;BME280;9396;51.510;11.934;2024-03-25T10:04:00;99609.88;;;9.39;91.98
18533;BME280;9396;51.510;11.934;2024-03-25T10:06:27;99601.25;;;9.37;89.40
18533;BME280;9396;51.510;11.934;2024-03-25T10:08:53;99591.63;;;9.44;89.24
18533;BME280;9396;51.510;11.934;2024-03-25T10:11:19;99594.28;;;9.44;90.21
18533;BME280;9396;51.510;11.934;2024-03-25T10:13:45;99604.59;;;9.55;88.99
18533;BME280;9396;51.510;11.934;2024-03-25T10:16:10;99593.31;;;9.61;89.36
18533;BME280;9396;51.510;11.934;2024-03-25T10:18:36;99596.44;;;9.56;87.27
18533;BME280;9396;51.510;11.934;2024-03-25T10:21:02;99595.97;;;9.45;86.25
18533;BME280;9396;51.510;11.934;2024-03-25T10:23:29;99599.28;;;9.55;85.97
18533;BME280;9396;51.510;11.934;2024-03-25T10:25:55;99599.09;;;9.40;87.41
18533;BME280;9396;51.510;11.934;2024-03-25T10:28:20;99610.19;;;9.12;90.10
18533;BME280;9396;51.510;11.934;2024-03-25T10:30:46;99615.47;;;8.88;91.49
18533;BME280;9396;51.510;11.934;2024-03-25T10:33:12;99613.09;;;8.69;92.24
18533;BME280;9396;51.510;11.934;2024-03-25T10:35:39;99614.06;;;8.59;92.65
18533;BME280;9396;51.510;11.934;2024-03-25T10:38:06;99605.06;;;8.44;92.67
18533;BME280;9396;51.510;11.934;2024-03-25T10:40:34;99614.69;;;8.53;93.05
18533;BME280;9396;51.510;11.934;2024-03-25T10:43:01;99618.69;;;8.57;92.09
18533;BME280;9396;51.510;11.934;2024-03-25T10:45:29;99619.50;;;8.58;93.05
18533;BME280;9396;51.510;11.934;2024-03-25T10:47:57;99625.53;;;8.76;93.46
18533;BME280;9396;51.510;11.934;2024-03-25T10:50:26;99615.31;;;8.89;94.62
18533;BME280;9396;51.510;11.934;2024-03-25T10:52:54;99611.50;;;9.00;94.12
18533;BME280;9396;51.510;11.934;2024-03-25T10:55:20;99612.03;;;9.11;93.37
18533;BME280;9396;51.510;11.934;2024-03-25T10:57:47;99614.53;;;9.13;92.65
18533;BME280;9396;51.510;11.934;2024-03-25T11:00:14;99610.88;;;9.22;88.74
18533;BME280;9396;51.510;11.934;2024-03-25T11:02:41;99615.69;;;9.26;89.13
18533;BME280;9396;51.510;11.934;2024-03-25T11:05:08;99616.84;;;9.40;89.49
18533;BME280;9396;51.510;11.934;2024-03-25T11:07:34;99614.53;;;9.29;86.85
18533;BME280;9396;51.510;11.934;2024-03-25T11:10:04;99611.53;;;9.32;85.65
18533;BME280;9396;51.510;11.934;2024-03-25T11:12:34;99614.34;;;9.38;85.54
18533;BME280;9396;51.510;11.934;2024-03-25T11:15:02;99611.22;;;9.35;84.65
18533;BME280;9396;51.510;11.934;2024-03-25T11:17:29;99614.19;;;9.32;87.12
18533;BME280;9396;51.510;11.934;2024-03-25T11:19:54;99604.59;;;9.31;86.29
18533;BME280;9396;51.510;11.934;2024-03-25T11:22:32;99611.22;;;9.51;86.94
18533;BME280;9396;51.510;11.934;2024-03-25T11:25:05;99608.41;;;9.60;87.36
18533;BME280;9396;51.510;11.934;2024-03-25T11:27:32;99603.09;;;9.28;87.32
18533;BME280;9396;51.510;11.934;2024-03-25T11:29:57;99608.03;;;9.15;89.54
18533;BME280;9396;51.510;11.934;2024-03-25T11:32:25;99606.88;;;9.10;88.68
18533;BME280;9396;51.510;11.934;2024-03-25T11:34:52;99610.38;;;9.02;88.78
18533;BME280;9396;51.510;11.934;2024-03-25T11:37:17;99600.22;;;8.98;88.59
18533;BME280;9396;51.510;11.934;2024-03-25T11:39:43;99600.91;;;9.00;88.16
18533;BME280;9396;51.510;11.934;2024-03-25T11:42:09;99599.56;;;8.88;86.75
18533;BME280;9396;51.510;11.934;2024-03-25T11:44:36;99593.25;;;8.89;87.98
18533;BME280;9396;51.510;11.934;2024-03-25T11:47:03;99603.56;;;8.92;87.63
18533;BME280;9396;51.510;11.934;2024-03-25T11:49:30;99603.88;;;8.97;86.12
18533;BME280;9396;51.510;11.934;2024-03-25T11:51:58;99607.00;;;8.92;85.71
18533;BME280;9396;51.510;11.934;2024-03-25T11:54:25;99591.78;;;8.86;84.65
18533;BME280;9396;51.510;11.934;2024-03-25T11:56:52;99600.25;;;9.06;87.66
18533;BME280;9396;51.510;11.934;2024-03-25T11:59:19;99605.25;;;9.25;88.11
18533;BME280;9396;51.510;11.934;2024-03-25T12:01:45;99597.63;;;9.38;89.06
18533;BME280;9396;51.510;11.934;2024-03-25T12:04:11;99598.13;;;9.41;88.83
18533;BME280;9396;51.510;11.934;2024-03-25T12:06:38;99597.97;;;9.43;88.51
18533;BME280;9396;51.510;11.934;2024-03-25T12:09:04;99604.09;;;9.51;89.33
18533;BME280;9396;51.510;11.934;2024-03-25T12:11:48;99603.09;;;9.44;88.89
18533;BME280;9396;51.510;11.934;2024-03-25T12:14:14;99600.41;;;9.52;90.19
18533;BME280;9396;51.510;11.934;2024-03-25T12:16:40;99600.09;;;9.55;89.97
18533;BME280;9396;51.510;11.934;2024-03-25T12:19:06;99604.75;;;9.45;89.91
18533;BME280;9396;51.510;11.934;2024-03-25T12:21:31;99604.25;;;9.42;88.62
18533;BME280;9396;51.510;11.934;2024-03-25T12:23:59;99611.84;;;9.05;88.69
18533;BME280;9396;51.510;11.934;2024-03-25T12:26:25;99599.88;;;9.01;89.79
18533;BME280;9396;51.510;11.934;2024-03-25T12:28:51;99597.09;;;9.02;89.37
18533;BME280;9396;51.510;11.934;2024-03-25T12:31:17;99601.25;;;9.21;89.02
18533;BME280;9396;51.510;11.934;2024-03-25T12:33:43;99588.31;;;9.26;88.65
18533;BME280;9396;51.510;11.934;2024-03-25T12:36:11;99599.28;;;9.55;86.19
18533;BME280;9396;51.510;11.934;2024-03-25T12:38:37;99594.63;;;9.57;84.63
18533;BME280;9396;51.510;11.934;2024-03-25T12:41:08;99597.63;;;9.38;86.16
18533;BME280;9396;51.510;11.934;2024-03-25T12:43:35;99594.97;;;9.46;87.75
18533;BME280;9396;51.510;11.934;2024-03-25T12:46:02;99596.78;;;9.45;86.68
18533;BME280;9396;51.510;11.934;2024-03-25T12:48:28;99590.81;;;9.35;87.17
18533;BME280;9396;51.510;11.934;2024-03-25T12:50:54;99590.97;;;9.34;87.66
18533;BME280;9396;51.510;11.934;2024-03-25T12:53:19;99577.38;;;9.37;87.37
18533;BME280;9396;51.510;11.934;2024-03-25T12:55:46;99584.50;;;9.28;86.51
18533;BME280;9396;51.510;11.934;2024-03-25T12:58:13;99586.31;;;9.28;86.41
18533;BME280;9396;51.510;11.934;2024-03-25T13:00:39;99586.50;;;9.18;87.08